createdAt,value
2018-06-28T00:01:00.583Z,12.47
2018-06-28T00:02:41.406Z,12.42
2018-06-28T00:04:18.575Z,12.38
2018-06-28T00:06:00.628Z,12.39
2018-06-28T00:07:36.902Z,12.37
2018-06-28T00:09:14.569Z,12.32
2018-06-28T00:10:51.278Z,12.34
2018-06-28T00:12:27.054Z,12.30
2018-06-28T00:14:02.757Z,12.28
2018-06-28T00:15:40.734Z,12.24
2018-06-28T00:17:17.312Z,12.26
2018-06-28T00:18:59.718Z,12.22
2018-06-28T00:20:36.043Z,12.22
2018-06-28T00:22:12.294Z,12.17
2018-06-28T00:23:48.195Z,12.15
2018-06-28T00:25:25.682Z,12.15
2018-06-28T00:27:01.128Z,12.11
2018-06-28T00:28:37.286Z,12.09
2018-06-28T00:30:15.897Z,12.02
2018-06-28T00:31:52.054Z,12.01
2018-06-28T00:33:33.106Z,11.95
2018-06-28T00:35:09.322Z,11.92
2018-06-28T00:36:46.836Z,11.90
2018-06-28T00:38:26.154Z,11.85
2018-06-28T00:40:05.493Z,11.89
2018-06-28T00:41:41.687Z,11.96
2018-06-28T00:43:17.756Z,11.94
2018-06-28T00:44:55.888Z,12.01
2018-06-28T00:46:32.243Z,12.08
2018-06-28T00:48:08.286Z,12.09
2018-06-28T00:49:43.273Z,12.06
2018-06-28T00:51:18.884Z,12.07
2018-06-28T00:52:54.245Z,12.02
2018-06-28T00:54:30.151Z,12.04
2018-06-28T00:56:07.223Z,12.00
2018-06-28T00:57:47.528Z,11.99
2018-06-28T00:59:25.574Z,12.02
2018-06-28T01:01:01.413Z,12.01
2018-06-28T01:02:36.752Z,12.02
2018-06-28T01:04:14.523Z,12.05
2018-06-28T01:05:50.071Z,12.06
2018-06-28T01:07:28.355Z,12.00
2018-06-28T01:09:04.063Z,12.01
2018-06-28T01:10:40.153Z,12.02
2018-06-28T01:12:15.462Z,12.07
2018-06-28T01:13:51.015Z,12.05
2018-06-28T01:15:26.139Z,12.05
2018-06-28T01:17:01.103Z,12.09
2018-06-28T01:18:35.925Z,12.11
2018-06-28T01:20:12.288Z,12.15
2018-06-28T01:21:47.397Z,12.13
2018-06-28T01:23:22.576Z,12.15
2018-06-28T01:24:57.923Z,12.15
2018-06-28T01:26:34.951Z,12.15
2018-06-28T01:28:09.717Z,12.13
2018-06-28T01:29:44.436Z,12.13
2018-06-28T01:33:16.423Z,12.08
2018-06-28T01:34:52.046Z,12.03
2018-06-28T01:36:27.007Z,12.00
2018-06-28T01:38:02.043Z,11.98
2018-06-28T01:39:37.718Z,11.99
2018-06-28T01:41:12.605Z,11.93
2018-06-28T01:42:59.268Z,11.89
2018-06-28T01:44:34.122Z,11.81
2018-06-28T01:46:09.169Z,11.70
2018-06-28T01:47:44.772Z,11.64
2018-06-28T01:49:19.606Z,11.62
2018-06-28T01:50:55.305Z,11.55
2018-06-28T01:52:31.643Z,11.58
2018-06-28T01:54:07.950Z,11.55
2018-06-28T01:55:44.331Z,11.54
2018-06-28T01:57:19.910Z,11.43
2018-06-28T01:58:56.255Z,11.37
2018-06-28T02:00:31.095Z,11.32
2018-06-28T02:02:06.713Z,11.27
2018-06-28T02:03:43.191Z,11.21
2018-06-28T02:05:19.433Z,11.15
2018-06-28T02:07:00.019Z,11.12
2018-06-28T02:08:35.475Z,11.12
2018-06-28T02:10:10.753Z,11.09
2018-06-28T02:11:45.801Z,11.07
2018-06-28T02:13:21.993Z,11.05
2018-06-28T02:14:57.411Z,11.00
2018-06-28T02:16:32.684Z,10.98
2018-06-28T02:18:09.305Z,10.96
2018-06-28T02:19:44.538Z,10.94
2018-06-28T02:21:19.333Z,10.89
2018-06-28T02:22:54.567Z,10.89
2018-06-28T02:24:30.311Z,10.88
2018-06-28T02:26:05.130Z,10.87
2018-06-28T02:27:42.301Z,10.81
2018-06-28T02:29:18.085Z,10.82
2018-06-28T02:30:54.748Z,10.78
2018-06-28T02:32:30.528Z,10.82
2018-06-28T02:34:07.347Z,10.77
2018-06-28T02:35:42.274Z,10.80
2018-06-28T02:37:19.223Z,10.82
2018-06-28T02:38:56.468Z,10.80
2018-06-28T02:40:31.396Z,10.81
2018-06-28T02:42:06.702Z,10.77
2018-06-28T02:43:41.569Z,10.78
2018-06-28T02:45:16.460Z,10.78
2018-06-28T02:48:30.667Z,10.77
2018-06-28T02:50:05.974Z,10.74
2018-06-28T02:51:41.014Z,10.70
2018-06-28T02:53:16.032Z,10.69
2018-06-28T02:54:52.704Z,10.67
2018-06-28T02:56:27.865Z,10.68
2018-06-28T02:58:02.684Z,10.65
2018-06-28T02:59:39.442Z,10.62
2018-06-28T03:01:14.311Z,10.60
2018-06-28T03:02:50.580Z,10.64
2018-06-28T03:04:25.324Z,10.68
2018-06-28T03:06:00.100Z,10.73
2018-06-28T03:07:37.504Z,10.82
2018-06-28T03:09:13.907Z,10.79
2018-06-28T03:10:59.953Z,10.89
2018-06-28T03:12:34.660Z,10.93
2018-06-28T03:14:10.308Z,10.96
2018-06-28T03:15:45.220Z,10.97
2018-06-28T03:17:20.461Z,11.00
2018-06-28T03:18:55.985Z,11.03
2018-06-28T03:20:30.942Z,11.01
2018-06-28T03:22:05.779Z,11.08
2018-06-28T03:23:40.506Z,11.10
2018-06-28T03:25:16.275Z,11.19
2018-06-28T03:26:51.107Z,11.25
2018-06-28T03:28:25.829Z,11.27
2018-06-28T03:30:00.622Z,11.25
2018-06-28T03:31:35.507Z,11.30
2018-06-28T03:33:12.625Z,11.30
2018-06-28T03:34:47.417Z,11.32
2018-06-28T03:36:22.242Z,11.31
2018-06-28T03:37:57.181Z,11.37
2018-06-28T03:39:32.323Z,11.29
2018-06-28T03:41:07.625Z,11.35
2018-06-28T03:42:43.248Z,11.38
2018-06-28T03:44:17.952Z,11.36
2018-06-28T03:45:53.398Z,11.26
2018-06-28T03:47:29.220Z,11.25
2018-06-28T03:49:05.325Z,11.19
2018-06-28T03:50:42.568Z,11.12
2018-06-28T03:52:20.253Z,11.13
2018-06-28T03:53:56.049Z,11.12
2018-06-28T03:55:30.839Z,11.11
2018-06-28T03:57:05.615Z,11.16
2018-06-28T03:58:41.334Z,11.14
2018-06-28T04:00:17.495Z,11.21
2018-06-28T04:01:52.691Z,11.22
2018-06-28T04:03:27.866Z,11.17
2018-06-28T04:05:03.170Z,11.12
2018-06-28T04:06:37.936Z,11.11
2018-06-28T04:08:13.671Z,11.11
2018-06-28T04:09:48.828Z,11.14
2018-06-28T04:11:23.917Z,11.12
2018-06-28T04:13:00.091Z,11.15
2018-06-28T04:14:34.889Z,11.20
2018-06-28T04:16:10.741Z,11.22
2018-06-28T04:17:45.750Z,11.20
2018-06-28T04:19:21.126Z,11.20
2018-06-28T04:20:57.457Z,11.21
2018-06-28T04:22:33.264Z,11.30
2018-06-28T04:24:09.051Z,11.36
2018-06-28T04:25:43.725Z,11.45
2018-06-28T04:27:18.822Z,11.43
2018-06-28T04:28:53.721Z,11.44
2018-06-28T04:30:28.582Z,11.49
2018-06-28T04:32:07.164Z,11.52
2018-06-28T04:33:41.933Z,11.64
2018-06-28T04:35:20.647Z,11.67
2018-06-28T04:36:55.833Z,11.78
2018-06-28T04:38:30.634Z,11.89
2018-06-28T04:40:05.658Z,11.92
2018-06-28T04:41:40.671Z,12.01
2018-06-28T04:43:16.212Z,12.12
2018-06-28T04:44:50.906Z,12.17
2018-06-28T04:46:26.029Z,12.28
2018-06-28T04:48:00.948Z,12.38
2018-06-28T04:49:35.788Z,12.49
2018-06-28T04:51:11.125Z,12.60
2018-06-28T04:52:46.185Z,12.69
2018-06-28T04:54:20.985Z,12.79
2018-06-28T04:55:56.153Z,12.91
2018-06-28T04:57:41.549Z,13.06
2018-06-28T04:59:18.256Z,13.18
2018-06-28T05:00:53.239Z,13.39
2018-06-28T05:02:28.506Z,13.64
2018-06-28T05:04:04.342Z,13.87
2018-06-28T05:05:41.599Z,14.12
2018-06-28T05:07:16.423Z,14.34
2018-06-28T05:08:51.434Z,14.56
2018-06-28T05:10:26.665Z,14.81
2018-06-28T05:12:01.630Z,15.07
2018-06-28T05:13:40.467Z,15.32
2018-06-28T05:15:35.361Z,15.53
2018-06-28T05:17:10.395Z,15.85
2018-06-28T05:20:39.060Z,16.21
2018-06-28T05:22:23.229Z,16.37
2018-06-28T05:24:04.881Z,16.56
2018-06-28T05:25:44.108Z,16.76
2018-06-28T05:27:21.183Z,17.03
2018-06-28T05:28:55.919Z,17.24
2018-06-28T05:30:31.111Z,17.41
2018-06-28T05:32:06.805Z,17.57
2018-06-28T05:33:41.111Z,17.76
2018-06-28T05:35:16.300Z,17.97
2018-06-28T05:36:51.414Z,18.11
2018-06-28T05:38:26.356Z,18.27
2018-06-28T05:40:01.608Z,18.43
2018-06-28T05:41:36.493Z,18.52
2018-06-28T05:43:12.903Z,18.66
2018-06-28T05:44:48.306Z,18.86
2018-06-28T05:46:26.547Z,18.95
2018-06-28T05:48:08.032Z,19.25
2018-06-28T05:49:44.416Z,19.46
2018-06-28T05:51:19.776Z,19.40
2018-06-28T05:52:54.532Z,19.74
2018-06-28T05:54:29.447Z,19.84
2018-06-28T05:56:04.324Z,20.11
2018-06-28T05:57:39.817Z,20.35
2018-06-28T05:59:14.971Z,20.51
2018-06-28T06:00:49.819Z,20.66
2018-06-28T06:02:24.669Z,20.54
2018-06-28T06:04:01.325Z,20.45
2018-06-28T06:05:54.006Z,20.36
2018-06-28T06:07:53.922Z,20.32
2018-06-28T06:09:29.002Z,20.72
2018-06-28T06:11:04.360Z,20.97
2018-06-28T06:12:40.635Z,20.87
2018-06-28T06:14:17.963Z,21.10
2018-06-28T06:15:53.579Z,21.14
2018-06-28T06:17:43.781Z,21.25
2018-06-28T06:19:21.136Z,21.55
2018-06-28T06:20:56.616Z,21.30
2018-06-28T06:22:33.326Z,21.60
2018-06-28T06:24:16.101Z,21.67
2018-06-28T06:25:53.943Z,21.69
2018-06-28T06:27:29.013Z,21.78
2018-06-28T06:29:04.565Z,21.91
2018-06-28T06:30:44.085Z,21.92
2018-06-28T06:32:19.340Z,22.09
2018-06-28T06:33:58.224Z,22.21
2018-06-28T06:35:41.257Z,22.12
2018-06-28T06:37:16.898Z,22.14
2018-06-28T06:38:56.052Z,22.06
2018-06-28T06:40:35.786Z,21.84
2018-06-28T06:42:21.371Z,22.17
2018-06-28T06:44:05.651Z,22.22
2018-06-28T06:45:42.511Z,22.27
2018-06-28T06:47:38.158Z,22.04
2018-06-28T06:49:30.940Z,22.28
2018-06-28T06:52:12.345Z,22.21
2018-06-28T06:53:53.715Z,22.20
2018-06-28T06:55:33.138Z,22.33
2018-06-28T06:57:12.091Z,22.37
2018-06-28T06:58:55.518Z,22.65
2018-06-28T07:00:41.595Z,22.45
2018-06-28T07:02:19.382Z,22.53
2018-06-28T07:04:05.496Z,22.63
2018-06-28T07:05:41.399Z,22.71
2018-06-28T07:07:18.320Z,22.57
2018-06-28T07:09:00.031Z,22.49
2018-06-28T07:10:51.328Z,22.75
2018-06-28T07:12:34.324Z,22.80
2018-06-28T07:14:15.657Z,22.94
2018-06-28T07:15:57.259Z,23.11
2018-06-28T07:17:35.244Z,22.93
2018-06-28T07:19:22.079Z,22.83
2018-06-28T07:21:22.531Z,22.93
2018-06-28T07:23:06.228Z,22.99
2018-06-28T07:24:48.248Z,22.91
2018-06-28T07:26:25.082Z,23.13
2018-06-28T07:28:04.017Z,23.19
2018-06-28T07:29:41.702Z,23.27
2018-06-28T07:31:16.928Z,23.30
2018-06-28T07:33:01.921Z,23.09
2018-06-28T07:34:36.946Z,23.16
2018-06-28T07:38:07.793Z,23.74
2018-06-28T07:39:45.990Z,23.74
2018-06-28T07:41:30.041Z,23.78
2018-06-28T07:43:16.375Z,23.82
2018-06-28T07:44:57.010Z,23.64
2018-06-28T07:46:35.778Z,23.76
2018-06-28T07:48:11.737Z,23.73
2018-06-28T07:49:53.940Z,23.77
2018-06-28T07:51:34.243Z,23.74
2018-06-28T07:53:10.199Z,23.77
2018-06-28T07:54:46.488Z,23.76
2018-06-28T07:56:28.171Z,23.63
2018-06-28T07:58:09.630Z,23.73
2018-06-28T07:59:49.692Z,23.74
2018-06-28T08:03:11.364Z,23.68
2018-06-28T08:04:56.880Z,23.66
2018-06-28T08:06:40.130Z,23.46
2018-06-28T08:08:16.696Z,23.40
2018-06-28T08:09:56.803Z,23.31
2018-06-28T08:11:39.503Z,23.57
2018-06-28T08:13:33.510Z,23.85
2018-06-28T08:20:12.451Z,23.85
2018-06-28T08:21:50.201Z,23.41
2018-06-28T08:23:26.872Z,23.23
2018-06-28T08:25:04.763Z,23.02
2018-06-28T08:26:51.579Z,23.28
2018-06-28T08:28:32.801Z,23.37
2018-06-28T08:30:16.844Z,23.34
2018-06-28T08:31:53.022Z,23.47
2018-06-28T08:33:31.756Z,23.53
2018-06-28T08:35:10.826Z,23.89
2018-06-28T08:36:53.630Z,24.21
2018-06-28T08:38:32.598Z,23.46
2018-06-28T08:40:17.253Z,23.44
2018-06-28T08:42:05.160Z,23.55
2018-06-28T08:43:42.744Z,23.64
2018-06-28T08:45:23.340Z,23.67
2018-06-28T08:47:01.325Z,23.89
2018-06-28T08:48:40.568Z,24.20
2018-06-28T08:50:16.392Z,24.45
2018-06-28T08:51:53.121Z,24.54
2018-06-28T08:53:32.234Z,24.87
2018-06-28T08:55:08.560Z,24.74
2018-06-28T08:56:48.578Z,24.49
2018-06-28T08:58:25.761Z,24.50
2018-06-28T09:02:07.269Z,24.42
2018-06-28T09:03:46.162Z,24.37
2018-06-28T09:05:23.238Z,24.14
2018-06-28T09:07:06.934Z,23.84
2018-06-28T09:08:45.406Z,24.18
2018-06-28T09:10:20.809Z,24.00
2018-06-28T09:11:59.273Z,24.02
2018-06-28T09:17:43.210Z,24.61
2018-06-28T09:21:45.344Z,24.39
2018-06-28T09:23:32.842Z,24.98
2018-06-28T09:27:25.817Z,24.80
2018-06-28T09:29:02.902Z,24.69
2018-06-28T09:30:39.314Z,24.81
2018-06-28T09:32:20.663Z,25.11
2018-06-28T09:36:10.683Z,25.40
2018-06-28T09:37:52.470Z,25.24
2018-06-28T09:39:33.319Z,24.92
2018-06-28T09:41:10.179Z,25.11
2018-06-28T09:42:57.215Z,24.36
2018-06-28T09:44:38.743Z,24.33
2018-06-28T09:46:24.766Z,24.11
2018-06-28T09:48:11.046Z,24.02
2018-06-28T09:49:47.449Z,24.46
2018-06-28T09:51:36.239Z,24.53
2018-06-28T09:53:17.838Z,24.89
2018-06-28T09:55:06.174Z,24.76
2018-06-28T09:56:47.446Z,24.80
2018-06-28T09:58:25.167Z,24.32
2018-06-28T10:00:01.009Z,24.82
2018-06-28T10:01:37.435Z,25.01
2018-06-28T10:03:16.217Z,24.99
2018-06-28T10:04:52.939Z,25.64
2018-06-28T10:06:28.410Z,25.09
2018-06-28T10:08:03.773Z,25.53
2018-06-28T10:09:42.388Z,25.73
2018-06-28T10:11:31.152Z,25.92
2018-06-28T10:13:08.850Z,25.80
2018-06-28T10:14:44.404Z,25.31
2018-06-28T10:16:26.686Z,25.88
2018-06-28T10:18:04.200Z,25.85
2018-06-28T10:19:41.915Z,25.58
2018-06-28T10:21:18.952Z,26.24
2018-06-28T10:22:59.807Z,25.43
2018-06-28T10:24:36.813Z,25.93
2018-06-28T10:26:15.486Z,25.99
2018-06-28T10:27:52.854Z,26.61
2018-06-28T10:29:28.451Z,26.36
2018-06-28T10:31:07.318Z,25.50
2018-06-28T10:32:48.873Z,25.72
2018-06-28T10:34:26.842Z,26.35
2018-06-28T10:36:02.921Z,26.62
2018-06-28T10:37:39.710Z,26.44
2018-06-28T10:39:18.291Z,26.23
2018-06-28T10:40:56.166Z,26.48
2018-06-28T10:42:34.415Z,27.19
2018-06-28T10:44:14.660Z,27.35
2018-06-28T10:45:50.347Z,27.01
2018-06-28T10:47:27.264Z,27.39
2018-06-28T10:49:14.994Z,27.44
2018-06-28T10:50:52.920Z,27.51
2018-06-28T10:52:31.401Z,27.62
2018-06-28T10:54:07.407Z,27.95
2018-06-28T10:55:44.011Z,28.34
2018-06-28T10:57:38.473Z,27.83
2018-06-28T10:59:18.385Z,27.18
2018-06-28T11:02:05.231Z,27.29
2018-06-28T11:03:45.347Z,27.75
2018-06-28T11:05:20.421Z,27.78
2018-06-28T11:07:05.973Z,28.05
2018-06-28T11:08:45.898Z,27.45
2018-06-28T11:10:22.968Z,26.70
2018-06-28T11:12:00.703Z,26.99
2018-06-28T11:13:37.412Z,27.40
2018-06-28T11:15:16.079Z,27.55
2018-06-28T11:16:58.249Z,27.21
2018-06-28T11:18:34.792Z,26.69
2018-06-28T11:20:11.778Z,26.49
2018-06-28T11:21:49.250Z,25.44
2018-06-28T11:23:25.497Z,26.08
2018-06-28T11:25:01.641Z,26.61
2018-06-28T11:26:40.560Z,26.64
2018-06-28T11:28:18.127Z,26.57
2018-06-28T11:29:53.882Z,26.66
2018-06-28T11:31:31.708Z,26.56
2018-06-28T11:33:09.846Z,26.61
2018-06-28T11:34:53.488Z,26.12
2018-06-28T11:36:31.511Z,25.43
2018-06-28T11:38:07.705Z,26.31
2018-06-28T11:39:48.023Z,26.85
2018-06-28T11:41:25.664Z,25.88
2018-06-28T11:43:03.123Z,25.59
2018-06-28T11:44:41.612Z,25.21
2018-06-28T11:46:20.119Z,25.14
2018-06-28T11:47:55.490Z,25.45
2018-06-28T11:49:30.778Z,25.29
2018-06-28T11:51:07.497Z,25.84
2018-06-28T11:52:43.773Z,26.17
2018-06-28T11:54:19.345Z,25.68
2018-06-28T11:56:02.402Z,25.39
2018-06-28T11:57:38.258Z,25.98
2018-06-28T11:59:16.065Z,26.24
2018-06-28T12:00:51.284Z,26.13
2018-06-28T12:02:27.809Z,26.35
2018-06-28T12:04:04.364Z,26.75
2018-06-28T12:05:40.793Z,27.44
2018-06-28T12:07:16.800Z,27.31
2018-06-28T12:08:53.628Z,26.79
2018-06-28T12:10:30.898Z,27.23
2018-06-28T12:12:07.680Z,27.44
2018-06-28T12:13:44.279Z,27.21
2018-06-28T12:15:22.501Z,27.54
2018-06-28T12:17:00.356Z,27.59
2018-06-28T12:18:36.235Z,27.68
2018-06-28T12:20:13.921Z,27.54
2018-06-28T12:21:49.220Z,27.31
2018-06-28T12:23:26.701Z,26.89
2018-06-28T12:25:02.213Z,26.91
2018-06-28T12:26:40.937Z,27.11
2018-06-28T12:28:19.660Z,26.92
2018-06-28T12:30:03.562Z,27.21
2018-06-28T12:31:41.465Z,27.80
2018-06-28T12:33:17.720Z,28.30
2018-06-28T12:34:54.462Z,28.31
2018-06-28T12:36:31.960Z,26.25
2018-06-28T12:38:11.939Z,25.47
2018-06-28T12:39:47.416Z,24.98
2018-06-28T12:41:22.409Z,25.69
2018-06-28T12:42:59.592Z,25.77
2018-06-28T12:44:34.612Z,26.44
2018-06-28T12:46:13.110Z,26.31
2018-06-28T12:48:00.616Z,26.88
2018-06-28T12:49:38.344Z,26.99
2018-06-28T12:51:13.903Z,26.81
2018-06-28T12:53:07.640Z,26.82
2018-06-28T12:54:44.282Z,27.22
2018-06-28T12:56:29.746Z,27.45
2018-06-28T13:00:23.357Z,27.95
2018-06-28T13:02:01.937Z,26.61
2018-06-28T13:03:39.211Z,27.05
2018-06-28T13:05:17.160Z,27.32
2018-06-28T13:06:52.933Z,27.68
2018-06-28T13:08:30.470Z,27.87
2018-06-28T13:10:08.938Z,27.27
2018-06-28T13:11:47.002Z,27.59
2018-06-28T13:13:24.717Z,27.79
2018-06-28T13:15:08.383Z,28.02
2018-06-28T13:16:48.100Z,28.10
2018-06-28T13:18:25.932Z,27.97
2018-06-28T13:20:04.874Z,27.99
2018-06-28T13:21:42.234Z,28.33
2018-06-28T13:23:22.870Z,27.55
2018-06-28T13:24:59.180Z,26.57
2018-06-28T13:26:40.105Z,26.21
2018-06-28T13:28:16.422Z,26.16
2018-06-28T13:29:54.117Z,26.53
2018-06-28T13:31:35.888Z,26.29
2018-06-28T13:33:13.881Z,26.32
2018-06-28T13:34:55.991Z,26.52
2018-06-28T13:36:43.250Z,26.82
2018-06-28T13:38:22.850Z,26.72
2018-06-28T13:40:05.072Z,26.95
2018-06-28T13:41:43.372Z,26.78
2018-06-28T13:43:20.231Z,26.55
2018-06-28T13:44:59.235Z,26.40
2018-06-28T13:46:37.694Z,27.03
2018-06-28T13:48:29.281Z,26.49
2018-06-28T13:50:12.916Z,26.43
2018-06-28T13:51:52.358Z,26.19
2018-06-28T13:53:35.512Z,26.91
2018-06-28T13:55:21.361Z,26.26
2018-06-28T14:01:13.645Z,26.36
2018-06-28T14:02:59.571Z,26.98
2018-06-28T14:04:35.201Z,26.72
2018-06-28T14:06:14.104Z,26.57
2018-06-28T14:07:49.271Z,26.80
2018-06-28T14:09:43.817Z,26.64
2018-06-28T14:11:22.989Z,25.98
2018-06-28T14:12:58.654Z,26.34
2018-06-28T14:14:35.299Z,26.73
2018-06-28T14:16:16.749Z,26.64
2018-06-28T14:17:52.284Z,26.98
2018-06-28T14:19:30.321Z,27.36
2018-06-28T14:21:06.622Z,27.51
2018-06-28T14:22:42.933Z,26.20
2018-06-28T14:24:21.423Z,25.95
2018-06-28T14:26:00.135Z,25.61
2018-06-28T14:27:43.927Z,25.54
2018-06-28T14:29:20.508Z,25.19
2018-06-28T14:30:57.109Z,25.45
2018-06-28T14:32:39.467Z,25.78
2018-06-28T14:34:14.511Z,25.96
2018-06-28T14:35:50.506Z,26.32
2018-06-28T14:37:26.610Z,26.63
2018-06-28T14:39:03.938Z,26.53
2018-06-28T14:40:40.737Z,26.25
2018-06-28T14:42:17.383Z,25.79
2018-06-28T14:43:54.547Z,25.48
2018-06-28T14:45:31.139Z,25.56
2018-06-28T14:47:06.356Z,25.76
2018-06-28T14:48:43.305Z,25.59
2018-06-28T14:50:21.579Z,25.77
2018-06-28T14:51:57.607Z,26.03
2018-06-28T14:53:34.265Z,26.02
2018-06-28T14:55:10.998Z,25.74
2018-06-28T14:56:48.018Z,26.31
2018-06-28T14:58:26.109Z,26.40
2018-06-28T15:00:04.440Z,26.62
2018-06-28T15:01:43.391Z,26.74
2018-06-28T15:03:19.527Z,26.72
2018-06-28T15:04:59.114Z,26.62
2018-06-28T15:06:38.263Z,26.55
2018-06-28T15:08:14.014Z,26.31
2018-06-28T15:09:51.678Z,26.49
2018-06-28T15:13:15.323Z,26.92
2018-06-28T15:15:00.623Z,26.94
2018-06-28T15:16:39.787Z,26.49
2018-06-28T15:18:18.382Z,26.35
2018-06-28T15:20:04.007Z,26.38
2018-06-28T15:21:44.832Z,26.27
2018-06-28T15:23:21.672Z,26.01
2018-06-28T15:25:00.294Z,25.79
2018-06-28T15:26:37.613Z,25.91
2018-06-28T15:28:14.935Z,26.31
2018-06-28T15:29:52.458Z,25.73
2018-06-28T15:31:29.688Z,25.73
2018-06-28T15:33:05.279Z,25.92
2018-06-28T15:34:42.242Z,26.08
2018-06-28T15:36:43.361Z,26.35
2018-06-28T15:38:27.758Z,26.33
2018-06-28T15:40:23.931Z,26.54
2018-06-28T15:42:00.609Z,26.66
2018-06-28T15:43:35.932Z,26.73
2018-06-28T15:45:15.979Z,26.79
2018-06-28T15:46:53.824Z,26.88
2018-06-28T15:48:29.912Z,26.63
2018-06-28T15:50:08.402Z,26.60
2018-06-28T15:51:46.999Z,26.39
2018-06-28T15:55:27.094Z,25.30
2018-06-28T15:57:03.538Z,25.01
2018-06-28T15:58:47.304Z,25.42
2018-06-28T16:00:27.780Z,25.32
2018-06-28T16:02:09.323Z,25.32
2018-06-28T16:03:57.413Z,25.63
2018-06-28T16:05:42.704Z,25.76
2018-06-28T16:07:20.992Z,25.82
2018-06-28T16:09:00.386Z,26.09
2018-06-28T16:10:36.069Z,26.03
2018-06-28T16:12:19.664Z,25.76
2018-06-28T16:16:07.280Z,26.13
2018-06-28T16:17:45.263Z,25.76
2018-06-28T16:19:22.409Z,25.59
2018-06-28T16:21:00.531Z,25.35
2018-06-28T16:22:39.679Z,25.20
2018-06-28T16:24:19.963Z,25.55
2018-06-28T16:26:00.323Z,25.64
2018-06-28T16:27:44.482Z,25.73
2018-06-28T16:29:23.931Z,25.43
2018-06-28T16:31:01.068Z,25.76
2018-06-28T16:32:37.688Z,25.82
2018-06-28T16:34:14.184Z,26.11
2018-06-28T16:35:52.085Z,26.07
2018-06-28T16:37:27.838Z,25.20
2018-06-28T16:39:05.045Z,25.62
2018-06-28T16:40:42.869Z,25.07
2018-06-28T16:42:18.069Z,25.14
2018-06-28T16:43:54.258Z,25.08
2018-06-28T16:45:31.457Z,24.94
2018-06-28T16:47:07.890Z,25.18
2018-06-28T16:48:43.929Z,25.21
2018-06-28T16:50:19.668Z,25.26
2018-06-28T16:52:00.851Z,25.38
2018-06-28T16:53:41.402Z,25.39
2018-06-28T16:55:18.376Z,25.25
2018-06-28T16:56:59.801Z,25.39
2018-06-28T16:58:37.575Z,25.30
2018-06-28T17:00:19.241Z,25.09
2018-06-28T17:01:59.905Z,25.32
2018-06-28T17:03:37.254Z,25.47
2018-06-28T17:06:49.660Z,25.61
2018-06-28T17:08:29.765Z,25.39
2018-06-28T17:10:14.843Z,25.23
2018-06-28T17:11:52.064Z,25.37
2018-06-28T17:13:29.785Z,25.46
2018-06-28T17:15:14.833Z,25.36
2018-06-28T17:16:51.042Z,25.31
2018-06-28T17:18:29.547Z,25.16
2018-06-28T17:20:16.270Z,25.13
2018-06-28T17:21:54.041Z,25.06
2018-06-28T17:23:30.823Z,24.95
2018-06-28T17:25:06.349Z,24.75
2018-06-28T17:26:42.536Z,24.60
2018-06-28T17:28:20.836Z,24.82
2018-06-28T17:29:56.429Z,24.94
2018-06-28T17:31:32.476Z,24.96
2018-06-28T17:33:10.457Z,24.92
2018-06-28T17:34:45.860Z,24.66
2018-06-28T17:36:21.024Z,24.53
2018-06-28T17:38:02.499Z,24.85
2018-06-28T17:39:39.684Z,24.73
2018-06-28T17:41:20.220Z,24.62
2018-06-28T17:42:58.290Z,24.51
2018-06-28T17:44:34.528Z,24.65
2018-06-28T17:46:11.066Z,24.56
2018-06-28T17:47:54.262Z,24.56
2018-06-28T17:49:33.227Z,24.45
2018-06-28T17:51:20.020Z,24.36
2018-06-28T17:53:00.332Z,24.05
2018-06-28T17:54:45.821Z,23.90
2018-06-28T17:56:26.244Z,23.89
2018-06-28T17:58:11.520Z,24.07
2018-06-28T17:59:59.965Z,23.90
2018-06-28T18:01:43.959Z,23.81
2018-06-28T18:03:24.427Z,23.80
2018-06-28T18:05:07.857Z,23.88
2018-06-28T18:06:47.380Z,23.89
2018-06-28T18:10:18.049Z,23.83
2018-06-28T18:12:04.799Z,23.62
2018-06-28T18:13:46.925Z,23.69
2018-06-28T18:15:23.744Z,23.50
2018-06-28T18:17:05.810Z,23.53
2018-06-28T18:18:44.461Z,23.59
2018-06-28T18:20:27.526Z,23.49
2018-06-28T18:22:06.397Z,23.44
2018-06-28T18:23:43.091Z,23.50
2018-06-28T18:25:22.577Z,23.48
2018-06-28T18:27:01.159Z,23.48
2018-06-28T18:28:37.672Z,23.35
2018-06-28T18:30:20.601Z,23.26
2018-06-28T18:32:04.477Z,23.23
2018-06-28T18:35:53.732Z,23.23
2018-06-28T18:37:34.480Z,23.14
2018-06-28T18:39:20.568Z,23.11
2018-06-28T18:40:59.604Z,23.09
2018-06-28T18:42:40.425Z,23.11
2018-06-28T18:44:21.681Z,22.92
2018-06-28T18:46:00.619Z,22.99
2018-06-28T18:47:40.325Z,22.95
2018-06-28T18:49:22.660Z,22.97
2018-06-28T18:51:09.399Z,22.80
2018-06-28T18:52:48.433Z,22.73
2018-06-28T18:54:30.744Z,22.79
2018-06-28T18:56:10.354Z,22.75
2018-06-28T18:57:46.988Z,22.75
2018-06-28T18:59:23.406Z,22.73
2018-06-28T19:01:07.459Z,22.61
2018-06-28T19:02:46.419Z,22.57
2018-06-28T19:04:29.448Z,22.42
2018-06-28T19:06:10.474Z,22.53
2018-06-28T19:07:53.360Z,22.44
2018-06-28T19:09:43.667Z,22.31
2018-06-28T19:11:26.581Z,22.23
2018-06-28T19:13:08.234Z,22.14
2018-06-28T19:14:50.281Z,21.95
2018-06-28T19:16:34.300Z,21.79
2018-06-28T19:18:10.942Z,21.64
2018-06-28T19:19:49.637Z,21.43
2018-06-28T19:21:31.512Z,21.36
2018-06-28T19:23:20.057Z,21.27
2018-06-28T19:24:59.164Z,21.13
2018-06-28T19:28:28.222Z,20.88
2018-06-28T19:30:29.715Z,20.73
2018-06-28T19:32:11.392Z,20.59
2018-06-28T19:34:00.005Z,20.50
2018-06-28T19:35:39.491Z,20.35
2018-06-28T19:37:23.214Z,20.25
2018-06-28T19:39:10.605Z,20.13
2018-06-28T19:41:07.641Z,20.03
2018-06-28T19:44:08.314Z,19.95
2018-06-28T19:48:11.914Z,19.76
2018-06-28T19:49:56.398Z,19.84
2018-06-28T19:51:45.122Z,19.82
2018-06-28T19:53:26.051Z,19.72
2018-06-28T19:55:09.741Z,19.67
2018-06-28T19:56:47.552Z,19.63
2018-06-28T19:58:22.810Z,19.61
2018-06-28T20:00:09.337Z,19.59
2018-06-28T20:01:52.273Z,19.59
2018-06-28T20:03:38.407Z,19.52
2018-06-28T20:05:19.535Z,19.36
2018-06-28T20:06:56.662Z,19.33
2018-06-28T20:08:35.912Z,19.22
2018-06-28T20:10:18.251Z,19.14
2018-06-28T20:11:58.522Z,19.04
2018-06-28T20:13:39.375Z,18.93
2018-06-28T20:15:28.387Z,18.89
2018-06-28T20:17:20.407Z,18.76
2018-06-28T20:19:04.812Z,18.68
2018-06-28T20:20:45.437Z,18.58
2018-06-28T20:22:25.807Z,18.50
2018-06-28T20:24:12.195Z,18.46
2018-06-28T20:25:51.243Z,18.40
2018-06-28T20:27:32.989Z,18.41
2018-06-28T20:29:18.031Z,18.47
2018-06-28T20:32:52.719Z,18.51
2018-06-28T20:34:36.422Z,18.58
2018-06-28T20:36:23.753Z,18.50
2018-06-28T20:38:01.243Z,18.54
2018-06-28T20:39:55.766Z,18.54
2018-06-28T20:41:34.537Z,18.52
2018-06-28T20:43:18.796Z,18.56
2018-06-28T20:45:00.124Z,18.58
2018-06-28T20:46:51.266Z,18.56
2018-06-28T20:48:36.253Z,18.52
2018-06-28T20:50:22.852Z,18.48
2018-06-28T20:52:04.712Z,18.49
2018-06-28T20:53:43.424Z,18.47
2018-06-28T20:55:23.731Z,18.45
2018-06-28T20:57:01.972Z,18.43
2018-06-28T20:58:44.434Z,18.39
2018-06-28T21:00:23.254Z,18.43
2018-06-28T21:02:02.028Z,18.45
2018-06-28T21:03:41.231Z,18.46
2018-06-28T21:05:20.520Z,18.48
2018-06-28T21:07:04.483Z,18.43
2018-06-28T21:08:44.127Z,18.41
2018-06-28T21:10:20.270Z,18.40
2018-06-28T21:12:02.704Z,18.40
2018-06-28T21:13:42.223Z,18.40
2018-06-28T21:15:20.773Z,18.49
2018-06-28T21:17:01.672Z,18.52
2018-06-28T21:18:40.596Z,18.57
2018-06-28T21:20:19.258Z,18.58
2018-06-28T21:27:16.413Z,18.57
2018-06-28T21:35:01.914Z,18.59
2018-06-28T21:36:44.726Z,18.44
2018-06-28T21:38:30.578Z,18.42
2018-06-28T21:40:07.655Z,18.44
2018-06-28T21:41:50.070Z,18.44
2018-06-28T21:43:30.127Z,18.38
2018-06-28T21:45:28.146Z,18.45
2018-06-28T21:48:54.336Z,18.40
2018-06-28T21:50:35.827Z,18.42
2018-06-28T21:52:22.700Z,18.44
2018-06-28T21:54:03.925Z,18.55
2018-06-28T21:55:43.282Z,18.48
2018-06-28T21:57:20.534Z,18.46
2018-06-28T21:59:06.453Z,18.47
2018-06-28T22:00:46.031Z,18.45
2018-06-28T22:02:23.608Z,18.46
2018-06-28T22:04:00.373Z,18.44
2018-06-28T22:05:36.566Z,18.41
2018-06-28T22:07:12.673Z,18.46
2018-06-28T22:08:49.046Z,18.37
2018-06-28T22:10:27.886Z,18.31
2018-06-28T22:12:09.231Z,18.30
2018-06-28T22:13:49.559Z,18.25
2018-06-28T22:15:31.380Z,18.29
2018-06-28T22:17:11.716Z,18.18
2018-06-28T22:18:50.167Z,18.14
2018-06-28T22:20:27.498Z,18.16
2018-06-28T22:23:55.043Z,18.23